createdAt,value
2023-04-16T00:00:22.019Z,3.10
2023-04-16T00:02:50.884Z,3.23
2023-04-16T00:05:19.104Z,2.93
2023-04-16T00:07:48.501Z,3.23
2023-04-16T00:10:17.715Z,3.20
2023-04-16T00:12:46.997Z,3.37
2023-04-16T00:15:15.699Z,3.23
2023-04-16T00:17:43.759Z,3.17
2023-04-16T00:20:16.374Z,3.27
2023-04-16T00:22:44.537Z,3.63
2023-04-16T00:25:15.708Z,3.70
2023-04-16T00:27:44.500Z,3.57
2023-04-16T00:30:13.461Z,3.43
2023-04-16T00:32:41.546Z,3.30
2023-04-16T00:35:09.992Z,3.47
2023-04-16T00:37:41.296Z,3.33
2023-04-16T00:40:10.722Z,3.50
2023-04-16T00:42:40.466Z,4.00
2023-04-16T00:45:11.735Z,4.00
2023-04-16T00:47:39.998Z,3.53
2023-04-16T00:50:09.392Z,3.43
2023-04-16T00:52:38.754Z,4.00
2023-04-16T00:55:13.242Z,4.30
2023-04-16T00:57:46.739Z,3.63
2023-04-16T01:00:15.513Z,3.50
2023-04-16T01:02:44.964Z,3.33
2023-04-16T01:05:13.763Z,3.70
2023-04-16T01:07:41.968Z,3.40
2023-04-16T01:10:10.538Z,3.20
2023-04-16T01:12:39.728Z,3.60
2023-04-16T01:15:11.343Z,3.80
2023-04-16T01:17:41.761Z,3.87
2023-04-16T01:20:13.422Z,3.80
2023-04-16T01:22:42.865Z,3.87
2023-04-16T01:25:15.873Z,3.97
2023-04-16T01:27:44.762Z,3.90
2023-04-16T01:30:13.184Z,3.77
2023-04-16T01:32:54.793Z,3.50
2023-04-16T01:35:23.014Z,3.60
2023-04-16T01:37:53.765Z,4.10
2023-04-16T01:40:25.679Z,3.67
2023-04-16T01:42:57.463Z,3.47
2023-04-16T01:45:25.784Z,3.80
2023-04-16T01:47:54.317Z,3.70
2023-04-16T01:50:26.142Z,3.70
2023-04-16T01:52:55.604Z,3.70
2023-04-16T01:55:25.044Z,3.57
2023-04-16T01:57:53.776Z,3.70
2023-04-16T02:00:25.617Z,4.37
2023-04-16T02:02:54.736Z,3.90
2023-04-16T02:05:29.774Z,4.07
2023-04-16T02:08:00.787Z,4.17
2023-04-16T02:10:32.797Z,3.40
2023-04-16T02:13:01.192Z,3.70
2023-04-16T02:15:29.755Z,3.20
2023-04-16T02:17:58.580Z,3.57
2023-04-16T02:20:27.815Z,3.93
2023-04-16T02:23:01.893Z,3.70
2023-04-16T02:25:31.681Z,3.83
2023-04-16T02:27:59.992Z,3.43
2023-04-16T02:30:37.810Z,4.07
2023-04-16T02:33:08.458Z,3.70
2023-04-16T02:35:45.465Z,3.57
2023-04-16T02:38:15.769Z,3.87
2023-04-16T02:40:43.908Z,3.87
2023-04-16T02:43:12.729Z,3.70
2023-04-16T02:45:44.816Z,3.40
2023-04-16T02:48:14.776Z,4.07
2023-04-16T02:50:42.959Z,3.97
2023-04-16T02:53:11.632Z,3.90
2023-04-16T02:55:41.178Z,3.50
2023-04-16T02:58:13.617Z,4.10
2023-04-16T03:00:43.027Z,4.67
2023-04-16T03:03:11.195Z,4.80
2023-04-16T03:05:40.443Z,5.40
2023-04-16T03:08:08.833Z,5.23
2023-04-16T03:10:42.791Z,4.97
2023-04-16T03:13:10.876Z,5.13
2023-04-16T03:15:39.802Z,4.70
2023-04-16T03:18:07.989Z,7.30
2023-04-16T03:20:36.802Z,11.33
2023-04-16T03:23:08.117Z,6.07
2023-04-16T03:25:37.855Z,7.10
2023-04-16T03:28:07.580Z,7.13
2023-04-16T03:30:37.808Z,8.03
2023-04-16T03:33:07.255Z,7.47
2023-04-16T03:35:36.826Z,7.20
2023-04-16T03:38:05.806Z,7.10
2023-04-16T03:40:33.890Z,6.47
2023-04-16T03:43:03.802Z,18.67
2023-04-16T03:45:37.323Z,9.70
2023-04-16T03:48:06.825Z,6.27
2023-04-16T03:50:34.987Z,5.50
2023-04-16T03:53:07.434Z,5.97
2023-04-16T03:55:37.021Z,5.60
2023-04-16T03:58:09.937Z,5.53
2023-04-16T04:00:42.816Z,5.83
2023-04-16T04:03:17.278Z,5.43
2023-04-16T04:05:47.813Z,5.67
2023-04-16T04:08:21.208Z,5.40
2023-04-16T04:10:51.816Z,5.60
2023-04-16T04:13:22.040Z,6.07
2023-04-16T04:15:53.174Z,5.87
2023-04-16T04:18:25.387Z,6.00
2023-04-16T04:20:54.651Z,6.13
2023-04-16T04:23:26.768Z,5.60
2023-04-16T04:25:54.952Z,5.60
2023-04-16T04:28:23.977Z,5.73
2023-04-16T04:30:53.486Z,5.93
2023-04-16T04:33:21.655Z,6.03
2023-04-16T04:35:49.999Z,6.20
2023-04-16T04:38:20.820Z,6.57
2023-04-16T04:40:53.330Z,6.73
2023-04-16T04:43:24.858Z,6.77
2023-04-16T04:45:55.009Z,6.77
2023-04-16T04:48:29.358Z,6.53
2023-04-16T04:50:57.857Z,6.83
2023-04-16T04:53:25.997Z,6.93
2023-04-16T04:55:57.480Z,7.13
2023-04-16T04:58:34.160Z,8.10
2023-04-16T05:01:05.237Z,8.40
2023-04-16T05:03:36.279Z,8.40
2023-04-16T05:06:05.347Z,8.23
2023-04-16T05:08:33.498Z,8.60
2023-04-16T05:11:01.669Z,8.17
2023-04-16T05:13:29.786Z,8.33
2023-04-16T05:15:58.854Z,8.03
2023-04-16T05:18:28.362Z,8.80
2023-04-16T05:20:56.924Z,8.60
2023-04-16T05:23:25.680Z,9.60
2023-04-16T05:25:55.868Z,8.63
2023-04-16T05:28:24.876Z,9.00
2023-04-16T05:30:52.974Z,8.70
2023-04-16T05:33:21.872Z,8.23
2023-04-16T05:35:51.874Z,8.23
2023-04-16T05:38:21.905Z,7.83
2023-04-16T05:40:50.864Z,7.83
2023-04-16T05:43:19.041Z,8.47
2023-04-16T05:45:48.929Z,8.00
2023-04-16T05:48:21.010Z,7.73
2023-04-16T05:50:50.857Z,7.87
2023-04-16T05:53:20.362Z,8.00
2023-04-16T05:55:48.961Z,7.73
2023-04-16T05:58:17.671Z,7.93
2023-04-16T06:00:48.924Z,7.30
2023-04-16T06:03:17.228Z,7.73
2023-04-16T06:05:45.657Z,7.43
2023-04-16T06:08:13.822Z,7.20
2023-04-16T06:10:43.855Z,7.70
2023-04-16T06:13:12.892Z,7.93
2023-04-16T06:15:41.071Z,7.20
2023-04-16T06:18:09.280Z,7.90
2023-04-16T06:20:38.878Z,7.50
2023-04-16T06:23:07.026Z,7.67
2023-04-16T06:25:35.880Z,7.20
2023-04-16T06:28:05.666Z,7.60
2023-04-16T06:30:34.378Z,7.40
2023-04-16T06:33:04.376Z,7.33
2023-04-16T06:35:35.881Z,7.27
2023-04-16T06:38:04.011Z,8.07
2023-04-16T06:40:32.282Z,7.63
2023-04-16T06:43:00.807Z,8.40
2023-04-16T06:45:33.801Z,8.23
2023-04-16T06:48:05.090Z,7.67
2023-04-16T06:50:33.299Z,7.13
2023-04-16T06:53:01.627Z,7.30
2023-04-16T06:55:29.812Z,7.30
2023-04-16T06:57:58.011Z,7.13
2023-04-16T07:00:26.252Z,7.37
2023-04-16T07:02:58.737Z,7.23
2023-04-16T07:05:27.121Z,7.10
2023-04-16T07:07:56.314Z,7.17
2023-04-16T07:10:24.694Z,7.40
2023-04-16T07:12:52.984Z,6.63
2023-04-16T07:15:21.157Z,6.63
2023-04-16T07:17:49.395Z,7.33
2023-04-16T07:20:20.410Z,6.70
2023-04-16T07:22:48.592Z,7.77
2023-04-16T07:25:16.931Z,7.07
2023-04-16T07:27:45.014Z,7.47
2023-04-16T07:30:16.430Z,7.07
2023-04-16T07:32:47.357Z,7.30
2023-04-16T07:35:15.867Z,6.60
2023-04-16T07:37:45.958Z,6.73
2023-04-16T07:40:14.417Z,6.70
2023-04-16T07:42:42.501Z,6.40
2023-04-16T07:45:14.540Z,6.77
2023-04-16T07:47:42.628Z,6.30
2023-04-16T07:50:11.565Z,6.63
2023-04-16T07:52:41.406Z,7.40
2023-04-16T07:55:13.591Z,7.23
2023-04-16T07:57:43.246Z,7.07
2023-04-16T08:00:12.407Z,7.60
2023-04-16T08:02:44.462Z,7.70
2023-04-16T08:05:16.416Z,7.30
2023-04-16T08:07:44.673Z,7.27
2023-04-16T08:10:14.405Z,6.83
2023-04-16T08:12:42.765Z,7.07
2023-04-16T08:15:12.099Z,6.43
2023-04-16T08:17:43.244Z,6.33
2023-04-16T08:20:15.023Z,6.63
2023-04-16T08:22:49.553Z,6.10
2023-04-16T08:25:20.271Z,6.17
2023-04-16T08:27:48.369Z,6.17
2023-04-16T08:30:16.774Z,6.17
2023-04-16T08:32:45.645Z,6.10
2023-04-16T08:35:14.620Z,6.30
2023-04-16T08:37:44.448Z,5.80
2023-04-16T08:40:14.384Z,7.03
2023-04-16T08:42:47.031Z,6.03
2023-04-16T08:45:16.663Z,6.33
2023-04-16T08:47:49.919Z,6.13
2023-04-16T08:50:19.304Z,6.47
2023-04-16T08:52:53.454Z,6.47
2023-04-16T08:55:27.420Z,6.97
2023-04-16T08:58:01.388Z,6.33
2023-04-16T09:00:30.908Z,6.77
2023-04-16T09:03:00.340Z,6.40
2023-04-16T09:05:30.964Z,6.60
2023-04-16T09:07:59.097Z,6.67
2023-04-16T09:10:28.195Z,7.20
2023-04-16T09:12:59.013Z,7.00
2023-04-16T09:15:27.761Z,6.70
2023-04-16T09:17:56.886Z,6.83
2023-04-16T09:20:26.986Z,6.57
2023-04-16T09:22:57.045Z,6.40
2023-04-16T09:25:26.960Z,6.33
2023-04-16T09:27:55.604Z,6.73
2023-04-16T09:30:26.958Z,6.00
2023-04-16T09:33:16.731Z,6.07
2023-04-16T09:35:49.981Z,6.83
2023-04-16T09:38:18.755Z,6.40
2023-04-16T09:40:48.543Z,7.77
2023-04-16T09:43:18.993Z,7.33
2023-04-16T09:45:53.008Z,7.93
2023-04-16T09:48:31.091Z,7.60
2023-04-16T09:50:59.590Z,7.37
2023-04-16T09:53:28.829Z,6.67
2023-04-16T09:56:02.012Z,6.80
2023-04-16T09:58:30.968Z,6.80
2023-04-16T10:01:06.918Z,6.50
2023-04-16T10:03:37.402Z,6.63
2023-04-16T10:06:10.843Z,6.67
2023-04-16T10:08:44.988Z,6.50
2023-04-16T10:11:13.378Z,5.97
2023-04-16T10:13:42.016Z,6.30
2023-04-16T10:16:12.139Z,7.30
2023-04-16T10:18:46.568Z,6.93
2023-04-16T10:21:16.307Z,6.47
2023-04-16T10:23:45.742Z,5.53
2023-04-16T10:26:15.010Z,10.50
2023-04-16T10:28:43.347Z,8.60
2023-04-16T10:31:15.050Z,6.33
2023-04-16T10:33:43.811Z,6.37
2023-04-16T10:36:13.546Z,6.43
2023-04-16T10:38:47.046Z,18.67
2023-04-16T10:41:15.908Z,6.40
2023-04-16T10:43:46.198Z,6.37
2023-04-16T10:46:32.096Z,7.23
2023-04-16T10:49:03.993Z,6.27
2023-04-16T10:51:35.129Z,6.13
2023-04-16T10:54:06.053Z,6.40
2023-04-16T10:56:37.527Z,6.30
2023-04-16T10:59:08.170Z,6.23
2023-04-16T11:01:39.511Z,5.93
2023-04-16T11:04:30.128Z,6.23
2023-04-16T11:07:08.932Z,6.17
2023-04-16T11:09:57.567Z,5.93
2023-04-16T11:12:28.075Z,19.40
2023-04-16T11:15:00.510Z,9.17
2023-04-16T11:17:35.114Z,5.97
2023-04-16T11:20:03.378Z,6.43
2023-04-16T11:22:45.305Z,5.83
2023-04-16T11:25:13.651Z,5.80
2023-04-16T11:27:42.483Z,5.90
2023-04-16T11:30:12.055Z,5.87
2023-04-16T11:32:41.541Z,6.10
2023-04-16T11:35:17.043Z,5.90
2023-04-16T11:37:46.279Z,6.00
2023-04-16T11:40:14.740Z,5.50
2023-04-16T11:42:45.146Z,5.77
2023-04-16T11:45:16.176Z,5.93
2023-04-16T11:47:48.078Z,5.67
2023-04-16T11:50:23.980Z,5.67
2023-04-16T11:52:55.062Z,5.70
2023-04-16T11:55:23.783Z,6.17
2023-04-16T11:57:52.792Z,6.00
2023-04-16T12:00:25.212Z,6.47
2023-04-16T12:02:55.731Z,7.47
2023-04-16T12:05:34.128Z,6.47
2023-04-16T12:08:05.052Z,6.40
2023-04-16T12:10:35.996Z,8.50
2023-04-16T12:13:14.086Z,6.27
2023-04-16T12:15:47.072Z,6.10
2023-04-16T12:18:20.273Z,6.03
2023-04-16T12:20:48.648Z,6.80
2023-04-16T12:23:28.333Z,5.53
2023-04-16T12:25:59.690Z,5.60
2023-04-16T12:28:34.022Z,5.32
2023-04-16T12:31:02.913Z,5.70
2023-04-16T12:33:33.012Z,5.78
2023-04-16T12:36:02.654Z,5.95
2023-04-16T12:38:31.289Z,5.88
2023-04-16T12:41:02.629Z,5.40
2023-04-16T12:43:30.866Z,5.63
2023-04-16T12:45:59.100Z,5.32
2023-04-16T12:48:27.225Z,4.95
2023-04-16T12:50:56.866Z,5.15
2023-04-16T12:53:28.226Z,4.80
2023-04-16T12:55:57.079Z,5.03
2023-04-16T12:58:25.253Z,4.97
2023-04-16T13:00:53.523Z,4.45
2023-04-16T13:03:22.054Z,4.75
2023-04-16T13:05:51.182Z,4.68
2023-04-16T13:08:20.726Z,5.28
2023-04-16T13:10:50.641Z,4.80
2023-04-16T13:13:22.121Z,5.00
2023-04-16T13:15:50.274Z,4.97
2023-04-16T13:18:18.410Z,4.82
2023-04-16T13:20:46.633Z,5.68
2023-04-16T13:23:17.450Z,4.80
2023-04-16T13:25:49.551Z,4.97
2023-04-16T13:28:18.789Z,4.60
2023-04-16T13:30:48.097Z,4.47
2023-04-16T13:33:16.412Z,4.68
2023-04-16T13:35:45.420Z,4.68
2023-04-16T13:38:13.684Z,4.60
2023-04-16T13:40:43.930Z,4.38
2023-04-16T13:43:13.859Z,4.72
2023-04-16T13:45:42.101Z,4.05
2023-04-16T13:48:13.371Z,4.40
2023-04-16T13:50:41.978Z,4.20
2023-04-16T13:53:10.057Z,4.30
2023-04-16T13:55:40.120Z,4.43
2023-04-16T13:58:08.362Z,4.30
2023-04-16T14:00:38.492Z,4.22
2023-04-16T14:03:08.549Z,4.43
2023-04-16T14:05:36.928Z,4.43
2023-04-16T14:08:05.110Z,4.57
2023-04-16T14:10:33.344Z,4.85
2023-04-16T14:13:01.488Z,4.10
2023-04-16T14:15:30.068Z,4.70
2023-04-16T14:17:59.554Z,4.18
2023-04-16T14:20:27.710Z,4.20
2023-04-16T14:22:56.130Z,4.35
2023-04-16T14:25:24.967Z,4.20
2023-04-16T14:27:54.227Z,4.10
2023-04-16T14:30:22.424Z,5.03
2023-04-16T14:32:50.560Z,4.72
2023-04-16T14:35:20.153Z,4.38
2023-04-16T14:37:48.453Z,4.18
2023-04-16T14:40:17.310Z,4.80
2023-04-16T14:42:45.604Z,4.50
2023-04-16T14:45:17.339Z,4.68
2023-04-16T14:47:47.903Z,4.40
2023-04-16T14:50:16.733Z,4.10
2023-04-16T14:52:46.191Z,5.13
2023-04-16T14:55:14.415Z,4.22
2023-04-16T14:57:45.508Z,4.20
2023-04-16T15:00:17.570Z,4.35
2023-04-16T15:02:47.293Z,5.00
2023-04-16T15:05:15.828Z,5.53
2023-04-16T15:07:45.801Z,5.82
2023-04-16T15:10:15.158Z,5.07
2023-04-16T15:12:43.484Z,4.53
2023-04-16T15:15:12.108Z,4.72
2023-04-16T15:17:40.720Z,5.95
2023-04-16T15:20:14.102Z,4.53
2023-04-16T15:22:42.262Z,5.05
2023-04-16T15:25:12.530Z,5.10
2023-04-16T15:27:40.678Z,5.18
2023-04-16T15:30:09.951Z,4.63
2023-04-16T15:32:38.259Z,4.72
2023-04-16T15:35:07.882Z,4.90
2023-04-16T15:37:37.393Z,4.13
2023-04-16T15:40:08.020Z,4.80
2023-04-16T15:42:37.598Z,4.05
2023-04-16T15:45:06.355Z,4.47
2023-04-16T15:47:39.513Z,4.57
2023-04-16T15:50:12.314Z,4.15
2023-04-16T15:52:41.199Z,4.53
2023-04-16T15:55:10.282Z,4.75
2023-04-16T15:57:40.217Z,4.82
2023-04-16T16:00:13.873Z,5.15
2023-04-16T16:02:46.758Z,5.00
2023-04-16T16:05:15.460Z,4.60
2023-04-16T16:07:44.246Z,4.32
2023-04-16T16:10:14.247Z,4.60
2023-04-16T16:12:43.745Z,5.25
2023-04-16T16:15:11.984Z,5.25
2023-04-16T16:17:41.008Z,5.18
2023-04-16T16:20:10.793Z,4.80
2023-04-16T16:22:39.332Z,4.50
2023-04-16T16:25:10.153Z,4.88
2023-04-16T16:27:42.595Z,4.97
2023-04-16T16:30:13.299Z,5.25
2023-04-16T16:32:44.501Z,5.93
2023-04-16T16:35:14.236Z,6.05
2023-04-16T16:37:42.471Z,5.50
2023-04-16T16:40:12.267Z,5.90
2023-04-16T16:42:40.425Z,5.72
2023-04-16T16:45:09.854Z,6.07
2023-04-16T16:47:39.351Z,6.45
2023-04-16T16:50:11.361Z,6.65
2023-04-16T16:52:39.748Z,6.30
2023-04-16T16:55:13.573Z,5.93
2023-04-16T16:57:41.785Z,6.50
2023-04-16T17:00:15.217Z,6.63
2023-04-16T17:02:44.878Z,7.63
2023-04-16T17:05:14.541Z,10.88
2023-04-16T17:07:42.690Z,7.60
2023-04-16T17:10:13.135Z,7.67
2023-04-16T17:12:41.571Z,7.90
2023-04-16T17:15:10.902Z,7.53
2023-04-16T17:17:39.139Z,7.27
2023-04-16T17:20:10.820Z,7.63
2023-04-16T17:22:39.824Z,7.70
2023-04-16T17:25:09.714Z,7.33
2023-04-16T17:27:37.993Z,7.40
2023-04-16T17:30:07.465Z,7.90
2023-04-16T17:32:37.701Z,7.40
2023-04-16T17:35:09.450Z,7.97
2023-04-16T17:37:37.858Z,7.73
2023-04-16T17:40:10.124Z,7.53
2023-04-16T17:42:39.312Z,7.70
2023-04-16T17:45:08.542Z,7.53
2023-04-16T17:47:39.484Z,7.13
2023-04-16T17:50:13.257Z,8.20
2023-04-16T17:52:41.396Z,8.73
2023-04-16T17:55:14.279Z,8.43
2023-04-16T17:57:42.467Z,8.03
2023-04-16T18:00:12.534Z,8.70
2023-04-16T18:02:41.966Z,8.83
2023-04-16T18:05:11.710Z,8.73
2023-04-16T18:07:42.321Z,8.60
2023-04-16T18:10:11.834Z,9.00
2023-04-16T18:12:40.077Z,8.90
2023-04-16T18:15:09.899Z,8.00
2023-04-16T18:17:38.059Z,9.73
2023-04-16T18:20:12.724Z,9.40
2023-04-16T18:22:41.013Z,9.63
2023-04-16T18:25:09.646Z,9.63
2023-04-16T18:27:37.745Z,9.53
2023-04-16T18:30:07.158Z,9.07
2023-04-16T18:32:37.564Z,9.00
2023-04-16T18:35:06.636Z,9.17
2023-04-16T18:37:36.085Z,9.00
2023-04-16T18:40:05.830Z,9.23
2023-04-16T18:42:34.103Z,9.67
2023-04-16T18:47:40.996Z,10.27
2023-04-16T18:50:10.065Z,9.27
2023-04-16T18:52:39.639Z,9.43
2023-04-16T18:55:08.362Z,9.50
2023-04-16T18:57:36.719Z,9.47
2023-04-16T19:00:14.343Z,10.03
2023-04-16T19:02:42.927Z,9.43
2023-04-16T19:05:12.315Z,9.70
2023-04-16T19:07:41.877Z,10.03
2023-04-16T19:10:10.997Z,10.53
2023-04-16T19:12:42.365Z,9.57
2023-04-16T19:15:11.117Z,10.37
2023-04-16T19:17:40.022Z,10.67
2023-04-16T19:20:11.848Z,10.63
2023-04-16T19:22:41.268Z,10.63
2023-04-16T19:25:10.193Z,11.53
2023-04-16T19:27:39.311Z,11.93
2023-04-16T19:30:09.321Z,13.20
2023-04-16T19:32:38.391Z,12.87
2023-04-16T19:35:07.199Z,11.23
2023-04-16T19:37:38.033Z,11.63
2023-04-16T19:40:09.964Z,12.93
2023-04-16T19:42:39.339Z,11.80
2023-04-16T19:45:08.732Z,11.73
2023-04-16T19:47:36.833Z,11.07
2023-04-16T19:50:08.404Z,11.37
2023-04-16T19:52:39.157Z,11.43
2023-04-16T19:55:10.346Z,12.63
2023-04-16T19:57:41.231Z,11.40
2023-04-16T20:00:11.805Z,11.87
2023-04-16T20:02:40.901Z,12.03
2023-04-16T20:05:10.216Z,12.07
2023-04-16T20:07:38.410Z,11.87
2023-04-16T20:10:11.740Z,11.77
2023-04-16T20:12:39.865Z,12.20
2023-04-16T20:15:10.327Z,12.40
2023-04-16T20:17:38.596Z,12.90
2023-04-16T20:20:11.338Z,12.20
2023-04-16T20:22:40.333Z,12.80
2023-04-16T20:25:11.447Z,12.77
2023-04-16T20:27:40.524Z,12.63
2023-04-16T20:30:12.350Z,12.70
2023-04-16T20:32:40.798Z,13.53
2023-04-16T20:35:11.008Z,13.93
2023-04-16T20:37:42.455Z,14.13
2023-04-16T20:40:15.066Z,13.73
2023-04-16T20:42:46.577Z,12.67
2023-04-16T20:45:14.893Z,13.20
2023-04-16T20:47:47.884Z,13.60
2023-04-16T20:50:16.158Z,12.87
2023-04-16T20:52:46.356Z,12.73
2023-04-16T20:55:16.247Z,13.07
2023-04-16T20:57:46.349Z,13.23
2023-04-16T21:00:17.395Z,13.37
2023-04-16T21:02:45.633Z,13.37
2023-04-16T21:05:14.794Z,13.37
2023-04-16T21:07:44.365Z,13.00
2023-04-16T21:10:12.634Z,13.57
2023-04-16T21:12:46.453Z,12.90
2023-04-16T21:15:14.630Z,12.90
2023-04-16T21:17:42.724Z,13.77
2023-04-16T21:20:14.380Z,12.60
2023-04-16T21:22:45.323Z,13.87
2023-04-16T21:25:15.372Z,14.13
2023-04-16T21:27:44.790Z,13.20
2023-04-16T21:30:15.392Z,13.90
2023-04-16T21:32:47.685Z,13.57
2023-04-16T21:35:16.381Z,13.67
2023-04-16T21:37:45.220Z,13.80
2023-04-16T21:40:14.017Z,13.50
2023-04-16T21:42:42.464Z,13.60
2023-04-16T21:45:15.872Z,14.80
2023-04-16T21:47:44.212Z,15.37
2023-04-16T21:50:13.422Z,14.90
2023-04-16T21:52:46.269Z,14.60
2023-04-16T21:55:14.809Z,14.77
2023-04-16T21:57:44.402Z,15.63
2023-04-16T22:00:14.860Z,14.27
2023-04-16T22:02:43.705Z,14.83
2023-04-16T22:05:12.419Z,14.70
2023-04-16T22:07:40.609Z,14.50
2023-04-16T22:10:13.010Z,14.73
2023-04-16T22:12:44.837Z,16.63
2023-04-16T22:15:18.517Z,29.40
2023-04-16T22:17:47.130Z,17.80
2023-04-16T22:20:17.373Z,14.20
2023-04-16T22:22:45.733Z,14.93
2023-04-16T22:25:14.410Z,14.77
2023-04-16T22:27:42.552Z,14.40
2023-04-16T22:30:15.414Z,14.13
2023-04-16T22:32:43.513Z,14.17
2023-04-16T22:35:13.427Z,14.23
2023-04-16T22:37:41.670Z,14.30
2023-04-16T22:40:11.449Z,13.50
2023-04-16T22:42:41.442Z,14.50
2023-04-16T22:45:10.361Z,13.90
2023-04-16T22:47:40.437Z,15.57
2023-04-16T22:50:10.974Z,14.90
2023-04-16T22:52:39.086Z,14.97
2023-04-16T22:55:12.416Z,25.60
2023-04-16T22:57:41.440Z,43.23
2023-04-16T23:00:16.730Z,17.30
2023-04-16T23:02:47.497Z,15.30
2023-04-16T23:05:15.849Z,14.97
2023-04-16T23:07:44.426Z,14.70
2023-04-16T23:10:12.587Z,14.60
2023-04-16T23:12:41.471Z,14.60
2023-04-16T23:15:10.437Z,14.60
2023-04-16T23:17:38.510Z,15.00
2023-04-16T23:20:10.481Z,14.10
2023-04-16T23:22:38.741Z,14.33
2023-04-16T23:25:09.447Z,14.43
2023-04-16T23:27:37.953Z,42.63
2023-04-16T23:30:11.451Z,22.80
2023-04-16T23:32:40.235Z,14.60
2023-04-16T23:35:10.868Z,14.23
2023-04-16T23:37:42.455Z,14.90
2023-04-16T23:40:11.712Z,13.57
2023-04-16T23:42:40.439Z,14.00
2023-04-16T23:45:10.651Z,13.63
2023-04-16T23:47:42.348Z,13.37
2023-04-16T23:50:12.449Z,13.70
2023-04-16T23:52:41.370Z,13.57
2023-04-16T23:55:10.428Z,13.07
2023-04-16T23:57:38.558Z,13.27
